createdAt,value
2022-11-14T00:03:04.385Z,134.82
2022-11-14T00:05:57.403Z,140.43
2022-11-14T00:08:48.208Z,146.52
2022-11-14T00:11:39.857Z,131.93
2022-11-14T00:14:35.097Z,142.55
2022-11-14T00:17:26.755Z,137.02
2022-11-14T00:20:18.131Z,129.43
2022-11-14T00:23:09.562Z,127.32
2022-11-14T00:26:05.885Z,140.35
2022-11-14T00:28:57.979Z,138.50
2022-11-14T00:31:53.220Z,151.02
2022-11-14T00:34:44.344Z,143.15
2022-11-14T00:37:35.034Z,136.80
2022-11-14T00:40:26.432Z,142.95
2022-11-14T00:43:17.521Z,145.90
2022-11-14T00:46:09.494Z,147.60
2022-11-14T00:49:03.349Z,144.93
2022-11-14T00:51:54.964Z,151.18
2022-11-14T00:54:45.869Z,142.85
2022-11-14T00:57:37.992Z,142.57
2022-11-14T01:00:29.087Z,141.30
2022-11-14T01:03:20.491Z,144.73
2022-11-14T01:06:17.183Z,141.00
2022-11-14T01:09:09.269Z,139.52
2022-11-14T01:12:00.433Z,146.00
2022-11-14T01:14:52.190Z,149.25
2022-11-14T01:17:42.810Z,150.02
2022-11-14T01:20:34.061Z,145.00
2022-11-14T01:23:27.358Z,154.18
2022-11-14T01:26:18.793Z,140.43
2022-11-14T01:29:14.188Z,151.02
2022-11-14T01:32:05.838Z,140.65
2022-11-14T01:34:57.231Z,153.60
2022-11-14T01:37:48.617Z,135.70
2022-11-14T01:40:45.343Z,135.45
2022-11-14T01:43:37.835Z,134.38
2022-11-14T01:46:33.276Z,141.68
2022-11-14T01:49:26.871Z,143.10
2022-11-14T01:52:20.765Z,149.70
2022-11-14T01:55:14.352Z,135.82
2022-11-14T01:58:08.100Z,146.50
2022-11-14T02:00:59.962Z,144.75
2022-11-14T02:03:54.826Z,147.55
2022-11-14T02:06:47.139Z,148.40
2022-11-14T02:09:43.026Z,138.75
2022-11-14T02:12:34.558Z,144.75
2022-11-14T02:15:30.344Z,148.52
2022-11-14T02:18:21.909Z,148.50
2022-11-14T02:21:15.988Z,136.82
2022-11-14T02:24:12.300Z,146.00
2022-11-14T02:27:03.196Z,137.13
2022-11-14T02:29:54.708Z,145.98
2022-11-14T02:33:09.596Z,144.35
2022-11-14T02:35:57.201Z,146.45
2022-11-14T02:38:51.044Z,148.85
2022-11-14T02:41:42.233Z,147.35
2022-11-14T02:44:34.816Z,141.10
2022-11-14T02:47:28.322Z,138.63
2022-11-14T02:50:19.921Z,130.63
2022-11-14T02:53:11.163Z,137.80
2022-11-14T02:56:04.409Z,142.85
2022-11-14T02:58:55.659Z,140.10
2022-11-14T03:01:46.513Z,132.07
2022-11-14T03:04:38.111Z,138.30
2022-11-14T03:07:29.750Z,134.20
2022-11-14T03:10:21.316Z,135.38
2022-11-14T03:13:15.357Z,139.73
2022-11-14T03:16:10.716Z,141.02
2022-11-14T03:19:01.682Z,137.32
2022-11-14T03:21:53.099Z,134.90
2022-11-14T03:24:44.323Z,131.65
2022-11-14T03:27:35.763Z,131.18
2022-11-14T03:30:29.649Z,129.55
2022-11-14T03:33:20.711Z,137.85
2022-11-14T03:36:12.844Z,140.02
2022-11-14T03:39:04.291Z,135.20
2022-11-14T03:41:55.347Z,144.68
2022-11-14T03:44:46.544Z,130.75
2022-11-14T03:47:40.531Z,135.60
2022-11-14T03:50:31.990Z,134.88
2022-11-14T03:53:23.582Z,132.00
2022-11-14T03:56:14.990Z,139.50
2022-11-14T03:59:09.179Z,140.10
2022-11-14T04:02:00.581Z,135.07
2022-11-14T04:04:54.766Z,132.60
2022-11-14T04:07:46.341Z,132.32
2022-11-14T04:10:37.881Z,138.85
2022-11-14T04:13:29.596Z,127.40
2022-11-14T04:16:20.808Z,129.75
2022-11-14T04:19:12.293Z,134.52
2022-11-14T04:22:06.790Z,125.03
2022-11-14T04:24:58.239Z,125.43
2022-11-14T04:27:49.178Z,132.80
2022-11-14T04:30:40.320Z,125.38
2022-11-14T04:33:31.760Z,128.15
2022-11-14T04:36:23.045Z,128.77
2022-11-14T04:39:16.480Z,126.60
2022-11-14T04:42:07.879Z,125.93
2022-11-14T04:44:58.710Z,136.60
2022-11-14T04:47:50.379Z,133.38
2022-11-14T04:50:41.315Z,131.57
2022-11-14T04:53:32.908Z,124.75
2022-11-14T04:56:26.458Z,125.82
2022-11-14T04:59:20.849Z,124.72
2022-11-14T05:02:12.722Z,131.15
2022-11-14T05:05:04.218Z,129.70
2022-11-14T05:07:55.345Z,133.07
2022-11-14T05:10:47.695Z,138.70
2022-11-14T05:13:41.645Z,138.48
2022-11-14T05:16:36.197Z,132.00
2022-11-14T05:19:28.355Z,132.60
2022-11-14T05:22:19.508Z,137.38
2022-11-14T05:25:14.367Z,127.30
2022-11-14T05:28:06.226Z,129.23
2022-11-14T05:31:05.093Z,132.27
2022-11-14T05:33:56.481Z,129.85
2022-11-14T05:36:47.839Z,136.25
2022-11-14T05:39:41.507Z,132.55
2022-11-14T05:42:32.375Z,134.02
2022-11-14T05:45:24.299Z,131.73
2022-11-14T05:48:20.805Z,124.85
2022-11-14T05:51:15.754Z,134.85
2022-11-14T05:54:06.377Z,132.50
2022-11-14T05:56:57.921Z,125.90
2022-11-14T05:59:48.850Z,126.57
2022-11-14T06:02:40.107Z,128.15
2022-11-14T06:05:33.578Z,124.18
2022-11-14T06:08:24.884Z,131.23
2022-11-14T06:11:18.138Z,125.53
2022-11-14T06:14:10.887Z,128.15
2022-11-14T06:17:02.198Z,136.60
2022-11-14T06:19:53.676Z,123.45
2022-11-14T06:22:49.129Z,121.65
2022-11-14T06:25:41.782Z,128.10
2022-11-14T06:28:33.123Z,122.47
2022-11-14T06:31:25.611Z,130.35
2022-11-14T06:34:16.851Z,135.13
2022-11-14T06:37:09.390Z,133.50
2022-11-14T06:40:02.694Z,136.52
2022-11-14T06:42:53.850Z,126.25
2022-11-14T06:45:47.588Z,132.13
2022-11-14T06:48:39.530Z,127.57
2022-11-14T06:51:31.030Z,124.82
2022-11-14T06:54:22.708Z,126.13
2022-11-14T06:57:17.109Z,129.70
2022-11-14T07:00:11.113Z,123.97
2022-11-14T07:03:03.478Z,126.60
2022-11-14T07:05:54.837Z,127.63
2022-11-14T07:08:45.814Z,130.65
2022-11-14T07:11:39.832Z,125.70
2022-11-14T07:14:33.390Z,128.75
2022-11-14T07:17:29.871Z,128.20
2022-11-14T07:20:22.471Z,126.95
2022-11-14T07:23:18.642Z,126.90
2022-11-14T07:26:16.072Z,131.77
2022-11-14T07:29:08.749Z,127.88
2022-11-14T07:32:02.411Z,121.43
2022-11-14T07:34:59.244Z,127.80
2022-11-14T07:37:52.956Z,123.03
2022-11-14T07:40:44.650Z,126.47
2022-11-14T07:43:36.024Z,127.32
2022-11-14T07:46:27.450Z,134.20
2022-11-14T07:49:20.872Z,129.25
2022-11-14T07:52:12.237Z,130.77
2022-11-14T07:55:03.868Z,133.02
2022-11-14T07:57:57.820Z,130.18
2022-11-14T08:00:49.082Z,137.88
2022-11-14T08:03:45.320Z,139.90
2022-11-14T08:06:39.461Z,135.27
2022-11-14T08:09:30.743Z,126.07
2022-11-14T08:12:21.636Z,132.10
2022-11-14T08:15:18.072Z,134.10
2022-11-14T08:18:09.556Z,137.18
2022-11-14T08:21:00.880Z,137.88
2022-11-14T08:23:54.302Z,125.45
2022-11-14T08:26:45.321Z,141.15
2022-11-14T08:29:36.545Z,132.18
2022-11-14T08:32:27.689Z,131.63
2022-11-14T08:35:18.552Z,130.40
2022-11-14T08:38:09.691Z,125.82
2022-11-14T08:41:05.356Z,124.90
2022-11-14T08:43:56.733Z,127.85
2022-11-14T08:46:47.581Z,126.53
2022-11-14T08:49:39.353Z,117.78
2022-11-14T08:52:30.356Z,122.57
2022-11-14T08:55:21.390Z,134.23
2022-11-14T08:58:14.911Z,132.93
2022-11-14T09:01:07.201Z,135.05
2022-11-14T09:04:00.115Z,139.50
2022-11-14T09:06:52.336Z,134.55
2022-11-14T09:09:43.803Z,140.32
2022-11-14T09:12:35.138Z,137.25
2022-11-14T09:15:30.554Z,145.45
2022-11-14T09:18:24.593Z,133.60
2022-11-14T09:24:07.080Z,132.90
2022-11-14T09:26:58.269Z,137.68
2022-11-14T09:29:49.520Z,141.18
2022-11-14T09:32:43.184Z,138.25
2022-11-14T09:35:39.291Z,147.88
2022-11-14T09:38:38.416Z,128.10
2022-11-14T09:41:44.373Z,137.70
2022-11-14T09:44:54.791Z,142.88
2022-11-14T09:47:55.990Z,130.07
2022-11-14T09:50:56.685Z,138.93
2022-11-14T09:53:55.838Z,133.57
2022-11-14T09:56:46.552Z,146.07
2022-11-14T09:59:38.213Z,149.68
2022-11-14T10:02:42.837Z,139.63
2022-11-14T10:05:52.228Z,145.43
2022-11-14T10:08:53.955Z,145.88
2022-11-14T10:11:53.943Z,148.98
2022-11-14T10:15:23.459Z,146.13
2022-11-14T10:18:38.819Z,144.73
2022-11-14T10:21:48.079Z,141.35
2022-11-14T10:24:54.854Z,141.18
2022-11-14T10:28:03.847Z,137.23
2022-11-14T10:31:08.814Z,135.45
2022-11-14T10:34:05.698Z,140.77
2022-11-14T10:37:08.878Z,140.13
2022-11-14T10:40:17.711Z,137.60
2022-11-14T10:43:20.360Z,140.57
2022-11-14T10:46:16.941Z,142.65
2022-11-14T10:49:19.953Z,141.93
2022-11-14T10:52:17.321Z,141.25
2022-11-14T10:55:13.852Z,145.32
2022-11-14T10:58:05.361Z,147.07
2022-11-14T11:00:57.511Z,143.77
2022-11-14T11:03:48.846Z,141.45
2022-11-14T11:06:40.525Z,139.77
2022-11-14T11:09:46.780Z,149.18
2022-11-14T11:12:47.892Z,162.00
2022-11-14T11:15:46.586Z,153.93
2022-11-14T11:18:39.848Z,145.93
2022-11-14T11:21:30.832Z,144.13
2022-11-14T11:24:40.355Z,161.18
2022-11-14T11:27:33.024Z,159.57
2022-11-14T11:33:27.658Z,140.52
2022-11-14T11:36:24.176Z,140.00
2022-11-14T11:39:26.348Z,144.65
2022-11-14T11:42:33.901Z,150.57
2022-11-14T11:46:02.859Z,148.55
2022-11-14T11:49:00.590Z,148.80
2022-11-14T11:51:58.043Z,150.70
2022-11-14T11:54:58.179Z,144.90
2022-11-14T11:58:00.127Z,152.05
2022-11-14T12:00:55.570Z,153.70
2022-11-14T12:03:51.466Z,158.60
2022-11-14T12:06:48.194Z,156.85
2022-11-14T12:10:09.436Z,153.73
2022-11-14T12:13:27.278Z,154.27
2022-11-14T12:16:36.498Z,152.80
2022-11-14T12:19:54.304Z,164.73
2022-11-14T12:23:17.516Z,153.32
2022-11-14T12:26:32.160Z,160.48
2022-11-14T12:29:48.346Z,200.70
2022-11-14T12:32:43.092Z,173.43
2022-11-14T12:35:36.002Z,178.75
2022-11-14T12:38:27.900Z,165.73
2022-11-14T12:41:30.904Z,169.05
2022-11-14T12:47:22.727Z,156.80
2022-11-14T12:50:35.485Z,161.65
2022-11-14T12:53:45.334Z,172.23
2022-11-14T12:57:11.364Z,163.65
2022-11-14T13:00:08.255Z,163.10
2022-11-14T13:03:28.630Z,167.82
2022-11-14T13:06:27.426Z,168.27
2022-11-14T13:09:37.312Z,176.20
2022-11-14T13:12:46.768Z,183.00
2022-11-14T13:15:53.117Z,175.70
2022-11-14T13:19:17.249Z,175.00
2022-11-14T13:22:38.292Z,185.18
2022-11-14T13:25:29.922Z,172.52
2022-11-14T13:28:49.653Z,167.57
2022-11-14T13:31:52.438Z,176.05
2022-11-14T13:37:56.965Z,165.02
2022-11-14T13:40:58.240Z,176.82
2022-11-14T13:44:06.963Z,165.13
2022-11-14T13:47:19.147Z,188.27
2022-11-14T13:50:15.760Z,185.63
2022-11-14T13:53:14.455Z,182.50
2022-11-14T13:56:16.868Z,183.93
2022-11-14T13:59:36.712Z,178.50
2022-11-14T14:02:52.257Z,172.60
2022-11-14T14:06:05.554Z,181.40
2022-11-14T14:09:12.277Z,177.00
2022-11-14T14:12:18.981Z,182.48
2022-11-14T14:15:24.763Z,175.95
2022-11-14T14:18:27.513Z,173.02
2022-11-14T14:21:35.842Z,175.15
2022-11-14T14:24:43.150Z,170.88
2022-11-14T14:27:41.327Z,177.95
2022-11-14T14:30:33.311Z,179.70
2022-11-14T14:33:24.283Z,176.55
2022-11-14T14:36:27.338Z,175.80
2022-11-14T14:39:22.233Z,180.00
2022-11-14T14:42:15.442Z,185.07
2022-11-14T14:48:05.909Z,173.13
2022-11-14T14:50:59.211Z,177.40
2022-11-14T14:53:57.710Z,166.50
2022-11-14T14:57:00.478Z,177.10
2022-11-14T15:00:02.615Z,186.18
2022-11-14T15:02:54.623Z,173.32
2022-11-14T15:05:46.485Z,165.77
2022-11-14T15:08:41.846Z,165.77
2022-11-14T15:11:36.844Z,167.20
2022-11-14T15:14:30.028Z,168.13
2022-11-14T15:17:24.060Z,166.02
2022-11-14T15:20:26.266Z,166.60
2022-11-14T15:23:24.601Z,156.23
2022-11-14T15:26:19.561Z,154.85
2022-11-14T15:29:21.700Z,162.57
2022-11-14T15:32:23.658Z,152.85
2022-11-14T15:35:29.644Z,167.27
2022-11-14T15:41:37.464Z,168.60
2022-11-14T15:44:37.918Z,164.15
2022-11-14T15:47:31.341Z,165.43
2022-11-14T15:50:37.096Z,161.27
